Time;durP1;ratioP1;P1;durP2;ratioP2;P2;SDS_P1;SDS_P2;PMS_P1;PMS_P2;Temp;Humidity;BMP_temperature;BMP_pressure;BME280_temperature;BME280_humidity;BME280_pressure;Samples;Min_cycle;Max_cycle;Signal;HPM_P1;HPM_P2
2020/07/10 00:02:35;;;;;;;2.12;1.55;;;;;;;21.70;61.61;99919.02;;;;-57
2020/07/10 00:05:35;;;;;;;1.86;1.57;;;;;;;21.70;61.53;99912.51;;;;-57
2020/07/10 00:08:35;;;;;;;2.30;1.74;;;;;;;21.70;61.58;99916.66;;;;-57
2020/07/10 00:11:35;;;;;;;2.69;1.70;;;;;;;21.69;61.59;99914.55;;;;-57
2020/07/10 00:14:36;;;;;;;2.17;1.61;;;;;;;21.69;61.60;99910.91;;;;-57
2020/07/10 00:17:35;;;;;;;2.43;1.80;;;;;;;21.68;61.53;99903.23;;;;-57
2020/07/10 00:20:35;;;;;;;2.03;1.80;;;;;;;21.67;61.61;99901.20;;;;-57
2020/07/10 00:23:35;;;;;;;1.73;1.59;;;;;;;21.67;61.53;99897.86;;;;-57
2020/07/10 00:26:35;;;;;;;1.95;1.65;;;;;;;21.67;61.59;99895.66;;;;-57
2020/07/10 00:29:35;;;;;;;1.85;1.68;;;;;;;21.66;61.60;99889.22;;;;-57
2020/07/10 00:32:36;;;;;;;3.03;1.70;;;;;;;21.66;61.58;99886.05;;;;-57
2020/07/10 00:35:35;;;;;;;2.99;1.70;;;;;;;21.66;61.62;99883.69;;;;-57
2020/07/10 00:38:35;;;;;;;2.18;1.65;;;;;;;21.65;61.55;99876.27;;;;-57
2020/07/10 00:41:35;;;;;;;2.19;1.69;;;;;;;21.65;61.59;99875.23;;;;-57
2020/07/10 00:44:35;;;;;;;2.47;1.82;;;;;;;21.65;61.61;99873.60;;;;-57
2020/07/10 00:51:41;;;;;;;1.99;1.69;;;;;;;21.64;61.59;99872.05;;;;-57
2020/07/10 00:54:36;;;;;;;2.19;1.69;;;;;;;21.64;61.59;99866.59;;;;-56
2020/07/10 00:57:35;;;;;;;1.97;1.62;;;;;;;21.63;61.60;99863.98;;;;-57
2020/07/10 01:00:35;;;;;;;2.38;1.75;;;;;;;21.63;61.61;99854.13;;;;-57
2020/07/10 01:03:35;;;;;;;2.01;1.80;;;;;;;21.63;61.63;99850.63;;;;-57
2020/07/10 01:09:36;;;;;;;2.41;1.58;;;;;;;21.61;61.57;99842.23;;;;-57
2020/07/10 01:12:35;;;;;;;2.84;1.68;;;;;;;21.60;61.61;99836.23;;;;-57
2020/07/10 01:15:35;;;;;;;2.09;1.60;;;;;;;21.61;61.61;99835.66;;;;-57
2020/07/10 01:18:36;;;;;;;4.50;1.67;;;;;;;21.61;61.59;99835.48;;;;-57
2020/07/10 01:21:35;;;;;;;2.22;1.69;;;;;;;21.60;61.61;99829.86;;;;-57
2020/07/10 01:24:35;;;;;;;1.98;1.50;;;;;;;21.60;61.66;99827.81;;;;-57
2020/07/10 01:27:35;;;;;;;2.12;1.71;;;;;;;21.59;61.62;99821.80;;;;-57
2020/07/10 01:32:35;;;;;;;1.93;1.65;;;;;;;21.60;61.61;99822.19;;;;-57
2020/07/10 01:35:35;;;;;;;2.07;1.57;;;;;;;21.58;61.57;99819.86;;;;-57
2020/07/10 01:38:35;;;;;;;1.75;1.55;;;;;;;21.58;61.64;99822.80;;;;-57
2020/07/10 01:44:37;;;;;;;1.67;1.50;;;;;;;21.58;61.67;99821.49;;;;-57
2020/07/10 01:47:35;;;;;;;1.69;1.58;;;;;;;21.58;61.60;99824.84;;;;-57
2020/07/10 01:50:35;;;;;;;2.13;1.49;;;;;;;21.57;61.64;99831.77;;;;-57
2020/07/10 01:53:36;;;;;;;1.73;1.60;;;;;;;21.57;61.64;99827.84;;;;-57
2020/07/10 01:56:35;;;;;;;2.53;1.60;;;;;;;21.57;61.57;99833.31;;;;-57
2020/07/10 01:59:35;;;;;;;1.76;1.51;;;;;;;21.57;61.61;99829.89;;;;-57
2020/07/10 02:02:35;;;;;;;1.59;1.49;;;;;;;21.57;61.58;99829.75;;;;-57
2020/07/10 02:05:35;;;;;;;4.23;1.65;;;;;;;21.56;61.62;99829.67;;;;-57
2020/07/10 02:08:36;;;;;;;1.66;1.48;;;;;;;21.56;61.56;99820.70;;;;-57
2020/07/10 02:11:35;;;;;;;1.74;1.61;;;;;;;21.57;61.63;99820.61;;;;-57
2020/07/10 02:14:35;;;;;;;1.84;1.47;;;;;;;21.56;61.59;99818.42;;;;-57
2020/07/10 02:17:36;;;;;;;1.86;1.59;;;;;;;21.56;61.56;99817.53;;;;-57
2020/07/10 02:20:36;;;;;;;1.60;1.50;;;;;;;21.56;61.62;99816.79;;;;-57
2020/07/10 02:23:35;;;;;;;2.74;1.51;;;;;;;21.56;61.62;99814.76;;;;-57
2020/07/10 02:26:36;;;;;;;2.07;1.55;;;;;;;21.56;61.64;99815.06;;;;-57
2020/07/10 02:29:36;;;;;;;1.62;1.51;;;;;;;21.55;61.63;99811.24;;;;-57
2020/07/10 02:32:35;;;;;;;2.17;1.47;;;;;;;21.55;61.64;99809.05;;;;-57
2020/07/10 02:35:37;;;;;;;1.53;1.43;;;;;;;21.55;61.64;99813.52;;;;-56
2020/07/10 02:38:35;;;;;;;2.01;1.61;;;;;;;21.55;61.56;99816.63;;;;-57
2020/07/10 02:41:35;;;;;;;1.89;1.50;;;;;;;21.54;61.59;99817.30;;;;-57
2020/07/10 02:44:35;;;;;;;1.73;1.51;;;;;;;21.55;61.64;99814.60;;;;-57
2020/07/10 02:47:35;;;;;;;1.93;1.57;;;;;;;21.54;61.58;99817.37;;;;-57
2020/07/10 02:50:35;;;;;;;1.65;1.50;;;;;;;21.54;61.60;99818.59;;;;-57
2020/07/10 02:53:36;;;;;;;1.70;1.49;;;;;;;21.54;61.58;99820.96;;;;-57
2020/07/10 02:56:35;;;;;;;1.61;1.50;;;;;;;21.53;61.60;99822.70;;;;-57
2020/07/10 02:59:36;;;;;;;1.65;1.55;;;;;;;21.53;61.58;99821.14;;;;-57
2020/07/10 03:02:35;;;;;;;1.60;1.50;;;;;;;21.53;61.60;99814.55;;;;-57
2020/07/10 03:05:35;;;;;;;1.67;1.54;;;;;;;21.52;61.63;99805.02;;;;-57
2020/07/10 03:08:35;;;;;;;2.23;1.63;;;;;;;21.52;61.61;99800.61;;;;-57
2020/07/10 03:11:35;;;;;;;1.88;1.56;;;;;;;21.52;61.63;99798.23;;;;-57
2020/07/10 03:14:35;;;;;;;1.71;1.47;;;;;;;21.52;61.68;99793.83;;;;-57
2020/07/10 03:17:35;;;;;;;1.81;1.60;;;;;;;21.51;61.63;99793.12;;;;-57
2020/07/10 03:20:35;;;;;;;2.22;1.50;;;;;;;21.51;61.60;99793.52;;;;-57
2020/07/10 03:23:35;;;;;;;1.51;1.41;;;;;;;21.51;61.62;99792.16;;;;-57
2020/07/10 03:26:35;;;;;;;1.61;1.45;;;;;;;21.51;61.59;99791.66;;;;-56
2020/07/10 03:29:36;;;;;;;2.02;1.47;;;;;;;21.51;61.60;99794.83;;;;-57
2020/07/10 03:32:36;;;;;;;1.81;1.46;;;;;;;21.52;61.61;99797.83;;;;-57
2020/07/10 03:35:35;;;;;;;1.57;1.42;;;;;;;21.51;61.63;99793.94;;;;-57
2020/07/10 03:38:35;;;;;;;1.83;1.50;;;;;;;21.50;61.57;99797.46;;;;-57
2020/07/10 03:41:36;;;;;;;1.47;1.37;;;;;;;21.51;61.60;99801.94;;;;-57
2020/07/10 03:44:35;;;;;;;1.76;1.50;;;;;;;21.51;61.63;99798.59;;;;-57
2020/07/10 03:47:35;;;;;;;2.54;1.52;;;;;;;21.51;61.60;99795.25;;;;-57
2020/07/10 03:50:35;;;;;;;2.43;1.35;;;;;;;21.50;61.56;99801.78;;;;-57
2020/07/10 03:53:35;;;;;;;2.66;1.49;;;;;;;21.50;61.54;99801.36;;;;-57
2020/07/10 03:56:35;;;;;;;2.17;1.50;;;;;;;21.50;61.55;99799.02;;;;-57
2020/07/10 04:00:35;;;;;;;2.47;1.59;;;;;;;21.49;61.57;99794.44;;;;-57
2020/07/10 04:03:37;;;;;;;1.74;1.43;;;;;;;21.49;61.57;99794.84;;;;-57
2020/07/10 04:06:36;;;;;;;1.66;1.49;;;;;;;21.49;61.61;99799.34;;;;-57
2020/07/10 04:11:36;;;;;;;1.76;1.50;;;;;;;21.49;61.55;99793.63;;;;-57
2020/07/10 04:19:35;;;;;;;1.53;1.43;;;;;;;21.48;61.61;99797.23;;;;-56
2020/07/10 04:22:35;;;;;;;1.50;1.40;;;;;;;21.48;61.54;99798.62;;;;-57
2020/07/10 04:25:35;;;;;;;1.50;1.40;;;;;;;21.48;61.58;99803.52;;;;-61
2020/07/10 04:28:35;;;;;;;1.77;1.58;;;;;;;21.48;61.58;99798.88;;;;-62
2020/07/10 04:31:35;;;;;;;1.53;1.37;;;;;;;21.48;61.57;99799.75;;;;-61
2020/07/10 04:35:35;;;;;;;1.70;1.47;;;;;;;21.48;61.57;99807.25;;;;-60
2020/07/10 04:40:35;;;;;;;1.63;1.50;;;;;;;21.48;61.56;99804.32;;;;-60
2020/07/10 04:43:35;;;;;;;1.40;1.30;;;;;;;21.47;61.58;99798.39;;;;-61
2020/07/10 04:46:35;;;;;;;1.46;1.36;;;;;;;21.47;61.58;99796.84;;;;-61
2020/07/10 04:51:35;;;;;;;1.51;1.41;;;;;;;21.46;61.58;99790.66;;;;-61
2020/07/10 04:54:35;;;;;;;1.67;1.50;;;;;;;21.47;61.56;99793.82;;;;-61
2020/07/10 05:04:02;;;;;;;1.52;1.42;;;;;;;21.46;61.58;99801.02;;;;-60
2020/07/10 05:09:01;;;;;;;1.51;1.38;;;;;;;21.46;61.57;99794.66;;;;-61
2020/07/10 05:12:01;;;;;;;1.63;1.49;;;;;;;21.45;61.60;99796.77;;;;-61
2020/07/10 05:16:01;;;;;;;1.38;1.28;;;;;;;21.45;61.60;99799.62;;;;-61
2020/07/10 05:19:01;;;;;;;1.68;1.37;;;;;;;21.45;61.60;99804.12;;;;-61
2020/07/10 05:23:01;;;;;;;1.52;1.39;;;;;;;21.45;61.57;99805.41;;;;-61
2020/07/10 05:27:01;;;;;;;1.64;1.52;;;;;;;21.44;61.60;99804.63;;;;-61
2020/07/10 05:32:01;;;;;;;1.39;1.29;;;;;;;21.45;61.55;99804.36;;;;-61
2020/07/10 05:36:01;;;;;;;1.41;1.31;;;;;;;21.44;61.55;99807.06;;;;-61
2020/07/10 05:41:01;;;;;;;1.49;1.39;;;;;;;21.45;61.57;99805.19;;;;-61
2020/07/10 05:45:01;;;;;;;1.46;1.36;;;;;;;21.44;61.57;99806.83;;;;-61
2020/07/10 05:49:01;;;;;;;1.63;1.31;;;;;;;21.45;61.58;99809.91;;;;-61
2020/07/10 05:56:01;;;;;;;2.21;1.45;;;;;;;21.44;61.58;99813.34;;;;-61
2020/07/10 06:03:01;;;;;;;1.79;1.34;;;;;;;21.45;61.58;99814.72;;;;-61
2020/07/10 06:12:28;;;;;;;1.42;1.32;;;;;;;21.44;61.54;99821.09;;;;-61
2020/07/10 06:15:28;;;;;;;1.59;1.39;;;;;;;21.44;61.55;99823.38;;;;-61
2020/07/10 06:20:27;;;;;;;1.50;1.40;;;;;;;21.44;61.57;99824.19;;;;-61
2020/07/10 06:26:27;;;;;;;1.61;1.49;;;;;;;21.44;61.57;99830.05;;;;-61
2020/07/10 06:31:28;;;;;;;1.40;1.30;;;;;;;21.44;61.55;99831.70;;;;-61
2020/07/10 06:36:27;;;;;;;1.60;1.50;;;;;;;21.44;61.58;99841.97;;;;-61
2020/07/10 06:40:28;;;;;;;1.55;1.40;;;;;;;21.43;61.55;99837.64;;;;-61
2020/07/10 06:43:28;;;;;;;2.84;1.40;;;;;;;21.44;61.56;99845.16;;;;-61
2020/07/10 06:46:27;;;;;;;1.47;1.37;;;;;;;21.43;61.60;99843.19;;;;-61
2020/07/10 06:49:28;;;;;;;2.72;1.61;;;;;;;21.47;62.88;99841.66;;;;-57
2020/07/10 06:52:27;;;;;;;4.89;1.82;;;;;;;21.51;63.09;99838.79;;;;-57
2020/07/10 06:55:28;;;;;;;3.05;1.99;;;;;;;21.55;62.97;99848.19;;;;-62
2020/07/10 06:58:27;;;;;;;8.86;1.96;;;;;;;21.55;62.61;99849.02;;;;-61
2020/07/10 07:01:28;;;;;;;5.07;2.10;;;;;;;21.55;62.44;99850.05;;;;-61
2020/07/10 07:06:28;;;;;;;3.66;1.87;;;;;;;21.56;62.69;99848.42;;;;-62
2020/07/10 07:09:31;;;;;;;4.13;1.85;;;;;;;21.58;62.63;99852.55;;;;-54
2020/07/10 07:14:28;;;;;;;2.86;1.95;;;;;;;21.60;62.65;99851.94;;;;-60
2020/07/10 07:17:28;;;;;;;2.99;1.88;;;;;;;21.60;62.69;99854.98;;;;-57
2020/07/10 07:20:28;;;;;;;7.95;1.88;;;;;;;21.63;62.67;99862.05;;;;-50
2020/07/10 07:23:28;;;;;;;2.57;1.70;;;;;;;21.64;62.61;99869.83;;;;-55
2020/07/10 07:26:28;;;;;;;2.70;1.65;;;;;;;21.65;62.55;99871.55;;;;-52
2020/07/10 07:31:28;;;;;;;3.21;1.89;;;;;;;21.67;62.70;99872.58;;;;-53
2020/07/10 07:34:31;;;;;;;2.77;1.85;;;;;;;21.68;62.64;99868.24;;;;-52
2020/07/10 07:37:28;;;;;;;2.31;1.77;;;;;;;21.69;62.39;99873.39;;;;-51
2020/07/10 07:40:28;;;;;;;2.80;1.79;;;;;;;21.68;62.52;99871.25;;;;-52
2020/07/10 07:43:28;;;;;;;3.36;1.69;;;;;;;21.67;62.45;99872.33;;;;-51
2020/07/10 07:46:28;;;;;;;5.17;1.77;;;;;;;21.67;62.44;99871.28;;;;-51
2020/07/10 07:49:28;;;;;;;4.15;1.97;;;;;;;21.67;62.39;99865.66;;;;-51
2020/07/10 07:52:28;;;;;;;2.37;1.62;;;;;;;21.67;62.38;99875.70;;;;-52
2020/07/10 07:55:28;;;;;;;2.95;1.83;;;;;;;21.66;62.42;99875.61;;;;-56
2020/07/10 07:58:27;;;;;;;3.31;1.73;;;;;;;21.68;62.49;99877.38;;;;-52
2020/07/10 08:01:28;;;;;;;3.51;1.76;;;;;;;21.69;62.35;99884.14;;;;-52
2020/07/10 08:04:28;;;;;;;2.14;1.59;;;;;;;21.70;62.37;99881.35;;;;-56
2020/07/10 08:07:28;;;;;;;3.14;1.64;;;;;;;21.70;62.39;99886.63;;;;-57
2020/07/10 08:10:28;;;;;;;2.75;1.54;;;;;;;21.71;62.39;99887.05;;;;-53
2020/07/10 08:13:28;;;;;;;2.29;1.75;;;;;;;21.73;62.47;99889.70;;;;-58
2020/07/10 08:16:27;;;;;;;2.21;1.72;;;;;;;21.73;62.48;99890.70;;;;-54
2020/07/10 08:19:28;;;;;;;3.77;1.70;;;;;;;21.75;62.39;99893.77;;;;-54
2020/07/10 08:22:28;;;;;;;2.89;1.65;;;;;;;21.75;62.54;99893.85;;;;-52
2020/07/10 08:25:28;;;;;;;5.75;1.85;;;;;;;21.76;62.64;99897.35;;;;-55
2020/07/10 08:28:28;;;;;;;4.52;1.94;;;;;;;21.76;62.40;99894.48;;;;-57
2020/07/10 08:31:28;;;;;;;2.53;1.68;;;;;;;21.77;62.43;99895.22;;;;-58
2020/07/10 08:34:28;;;;;;;3.42;1.67;;;;;;;21.78;62.39;99903.77;;;;-53
2020/07/10 08:37:28;;;;;;;3.00;1.70;;;;;;;21.79;62.33;99907.58;;;;-56
2020/07/10 08:40:28;;;;;;;2.37;1.72;;;;;;;21.80;62.34;99914.92;;;;-52
2020/07/10 08:43:28;;;;;;;4.41;1.70;;;;;;;21.80;62.42;99922.34;;;;-52
2020/07/10 08:46:28;;;;;;;4.22;1.81;;;;;;;21.80;62.32;99916.54;;;;-51
2020/07/10 08:49:28;;;;;;;3.12;1.78;;;;;;;21.82;62.22;99925.50;;;;-55
2020/07/10 08:52:28;;;;;;;12.06;2.06;;;;;;;21.85;62.57;99921.22;;;;-61
2020/07/10 08:55:27;;;;;;;18.25;2.46;;;;;;;21.87;62.65;99927.89;;;;-68
2020/07/10 08:58:28;;;;;;;17.13;2.23;;;;;;;21.89;62.44;99936.33;;;;-52
2020/07/10 09:01:28;;;;;;;20.11;3.11;;;;;;;21.92;62.76;99934.68;;;;-57
2020/07/10 09:04:28;;;;;;;24.51;2.73;;;;;;;21.96;62.33;99947.94;;;;-54
2020/07/10 09:07:28;;;;;;;20.53;2.93;;;;;;;21.97;62.92;99954.02;;;;-58
2020/07/10 09:10:27;;;;;;;17.89;2.66;;;;;;;21.99;62.94;99958.33;;;;-58
2020/07/10 09:13:27;;;;;;;16.52;2.39;;;;;;;22.00;62.43;99967.39;;;;-55
2020/07/10 09:16:28;;;;;;;32.38;2.86;;;;;;;22.02;62.69;99969.33;;;;-58
2020/07/10 09:19:28;;;;;;;12.32;2.75;;;;;;;22.02;63.00;99971.67;;;;-59
2020/07/10 09:22:28;;;;;;;15.14;2.76;;;;;;;22.02;62.84;99975.09;;;;-56
2020/07/10 09:25:28;;;;;;;20.02;2.65;;;;;;;22.01;62.93;99973.80;;;;-56
2020/07/10 09:28:28;;;;;;;13.41;2.72;;;;;;;22.02;62.81;99982.77;;;;-58
2020/07/10 09:31:28;;;;;;;14.65;2.54;;;;;;;22.02;62.73;99982.12;;;;-53
2020/07/10 09:34:28;;;;;;;9.70;2.45;;;;;;;22.02;62.79;99985.63;;;;-51
2020/07/10 09:37:28;;;;;;;13.66;2.45;;;;;;;22.02;62.70;99988.56;;;;-51
2020/07/10 09:40:28;;;;;;;13.92;2.61;;;;;;;22.03;62.70;99993.45;;;;-52
2020/07/10 09:43:28;;;;;;;10.80;2.32;;;;;;;22.03;62.66;99988.80;;;;-55
2020/07/10 09:46:28;;;;;;;10.27;2.37;;;;;;;22.03;62.72;99987.23;;;;-54
2020/07/10 09:49:28;;;;;;;10.53;2.31;;;;;;;22.03;62.50;99996.80;;;;-54
2020/07/10 09:52:28;;;;;;;8.17;2.21;;;;;;;22.02;62.54;99997.72;;;;-54
2020/07/10 09:55:28;;;;;;;6.84;2.11;;;;;;;22.01;62.63;100001.47;;;;-53
2020/07/10 09:58:28;;;;;;;14.05;2.25;;;;;;;22.00;62.51;100008.59;;;;-53
2020/07/10 10:01:28;;;;;;;10.27;2.15;;;;;;;21.99;62.49;100007.12;;;;-54
2020/07/10 10:04:28;;;;;;;7.12;2.17;;;;;;;21.98;62.46;100005.34;;;;-54
2020/07/10 10:07:28;;;;;;;5.59;1.99;;;;;;;21.98;62.44;100009.59;;;;-53
2020/07/10 10:10:28;;;;;;;10.47;2.11;;;;;;;21.98;62.33;100008.86;;;;-54
2020/07/10 10:13:28;;;;;;;8.32;2.31;;;;;;;21.97;62.32;100007.54;;;;-55
2020/07/10 10:16:28;;;;;;;10.42;2.82;;;;;;;21.97;62.28;100019.04;;;;-54
2020/07/10 10:19:28;;;;;;;7.48;2.03;;;;;;;21.97;62.25;100020.45;;;;-53
2020/07/10 10:22:28;;;;;;;6.12;1.83;;;;;;;21.96;62.25;100018.25;;;;-55
2020/07/10 10:28:28;;;;;;;6.04;1.93;;;;;;;21.95;62.23;100033.02;;;;-53
2020/07/10 10:31:28;;;;;;;4.08;1.76;;;;;;;21.95;62.13;100036.95;;;;-53
2020/07/10 10:34:28;;;;;;;4.87;1.90;;;;;;;21.94;62.14;100046.35;;;;-54
2020/07/10 10:37:28;;;;;;;7.45;1.98;;;;;;;21.93;62.12;100054.02;;;;-54
2020/07/10 10:43:28;;;;;;;6.02;2.05;;;;;;;21.92;62.08;100067.41;;;;-53
2020/07/10 10:46:28;;;;;;;5.31;1.96;;;;;;;21.92;62.07;100062.85;;;;-54
2020/07/10 10:49:28;;;;;;;7.41;1.92;;;;;;;21.92;62.00;100067.67;;;;-55
2020/07/10 10:52:28;;;;;;;6.70;1.87;;;;;;;21.90;62.07;100073.63;;;;-53
2020/07/10 10:55:28;;;;;;;5.18;1.93;;;;;;;21.91;62.04;100091.73;;;;-53
2020/07/10 10:58:28;;;;;;;4.89;1.76;;;;;;;21.90;62.02;100091.83;;;;-53
2020/07/10 11:01:28;;;;;;;6.62;1.85;;;;;;;21.89;62.00;100088.25;;;;-53
2020/07/10 11:04:28;;;;;;;4.77;1.87;;;;;;;21.89;61.96;100109.84;;;;-53
2020/07/10 11:07:28;;;;;;;5.27;1.93;;;;;;;21.88;62.00;100100.58;;;;-53
2020/07/10 11:10:28;;;;;;;3.99;1.81;;;;;;;21.88;62.00;100101.22;;;;-53
2020/07/10 11:16:27;;;;;;;3.30;1.95;;;;;;;21.88;61.97;100105.80;;;;-53
2020/07/10 11:19:28;;;;;;;5.32;1.97;;;;;;;21.87;61.98;100103.94;;;;-54
2020/07/10 11:22:28;;;;;;;3.33;1.83;;;;;;;21.87;61.98;100105.48;;;;-53
2020/07/10 11:25:27;;;;;;;4.07;1.64;;;;;;;21.86;61.96;100109.80;;;;-54
2020/07/10 11:28:27;;;;;;;3.39;1.79;;;;;;;21.86;61.91;100104.34;;;;-55
2020/07/10 11:31:28;;;;;;;4.80;1.73;;;;;;;21.86;61.94;100107.53;;;;-53
2020/07/10 11:34:28;;;;;;;3.54;1.76;;;;;;;21.85;61.91;100110.23;;;;-54
2020/07/10 11:37:28;;;;;;;3.03;1.81;;;;;;;21.85;61.97;100112.75;;;;-54
2020/07/10 11:40:28;;;;;;;3.87;1.83;;;;;;;21.85;61.93;100122.70;;;;-53
2020/07/10 11:43:28;;;;;;;3.76;1.86;;;;;;;21.85;61.96;100113.16;;;;-54
2020/07/10 11:46:28;;;;;;;3.46;1.87;;;;;;;21.84;61.90;100116.18;;;;-53
2020/07/10 11:49:28;;;;;;;3.26;1.70;;;;;;;21.84;61.92;100111.05;;;;-54
2020/07/10 11:52:27;;;;;;;3.41;1.65;;;;;;;21.84;61.91;100111.28;;;;-54
2020/07/10 11:55:28;;;;;;;4.49;1.60;;;;;;;21.84;61.91;100115.86;;;;-54
2020/07/10 11:58:27;;;;;;;1.71;1.54;;;;;;;21.84;61.90;100110.73;;;;-54
2020/07/10 12:01:28;;;;;;;2.78;1.63;;;;;;;21.84;61.85;100099.31;;;;-54
2020/07/10 12:04:28;;;;;;;4.41;1.67;;;;;;;21.83;61.87;100109.36;;;;-54
2020/07/10 12:07:28;;;;;;;3.25;1.50;;;;;;;21.83;61.88;100109.34;;;;-53
2020/07/10 12:10:28;;;;;;;2.33;1.53;;;;;;;21.83;61.90;100113.19;;;;-53
2020/07/10 12:13:28;;;;;;;2.08;1.61;;;;;;;21.84;61.89;100115.55;;;;-53
2020/07/10 12:16:28;;;;;;;2.57;1.57;;;;;;;21.82;61.83;100118.24;;;;-54
2020/07/10 12:19:28;;;;;;;2.85;1.53;;;;;;;21.82;61.86;100124.20;;;;-53
2020/07/10 12:22:28;;;;;;;2.08;1.55;;;;;;;21.82;61.92;100124.20;;;;-53
2020/07/10 12:25:28;;;;;;;1.97;1.51;;;;;;;21.82;61.91;100134.23;;;;-54
2020/07/10 12:28:27;;;;;;;2.58;1.60;;;;;;;21.82;61.84;100126.64;;;;-54
2020/07/10 12:31:27;;;;;;;3.19;1.55;;;;;;;21.83;61.80;100136.34;;;;-53
2020/07/10 12:34:28;;;;;;;2.89;1.62;;;;;;;21.82;61.85;100140.84;;;;-53
2020/07/10 12:37:27;;;;;;;2.55;1.52;;;;;;;21.82;61.85;100141.42;;;;-53
2020/07/10 12:40:28;;;;;;;3.65;1.83;;;;;;;21.82;61.91;100133.18;;;;-53
2020/07/10 12:43:28;;;;;;;2.11;1.51;;;;;;;21.82;61.84;100135.46;;;;-54
2020/07/10 12:46:28;;;;;;;1.90;1.49;;;;;;;21.82;61.80;100129.59;;;;-53
2020/07/10 12:49:28;;;;;;;3.03;1.79;;;;;;;21.81;61.87;100133.98;;;;-54
2020/07/10 12:52:28;;;;;;;3.76;1.55;;;;;;;21.82;61.92;100144.36;;;;-54
2020/07/10 12:55:28;;;;;;;1.81;1.54;;;;;;;21.81;61.88;100153.34;;;;-54
2020/07/10 12:58:29;;;;;;;2.13;1.60;;;;;;;21.80;61.83;100160.83;;;;-54
2020/07/10 13:05:28;;;;;;;1.59;1.39;;;;;;;21.80;61.86;100173.48;;;;-55
2020/07/10 13:08:28;;;;;;;1.50;1.40;;;;;;;21.81;61.86;100171.02;;;;-53
2020/07/10 13:11:28;;;;;;;2.43;1.60;;;;;;;21.80;61.82;100171.77;;;;-53
2020/07/10 13:14:28;;;;;;;3.03;1.58;;;;;;;21.80;61.80;100179.84;;;;-53
2020/07/10 13:17:28;;;;;;;1.74;1.52;;;;;;;21.80;61.83;100179.19;;;;-54
2020/07/10 13:20:28;;;;;;;1.96;1.64;;;;;;;21.80;61.78;100181.40;;;;-53
2020/07/10 13:23:28;;;;;;;2.08;1.50;;;;;;;21.79;61.85;100180.19;;;;-54
2020/07/10 13:26:28;;;;;;;1.78;1.59;;;;;;;21.79;61.86;100182.89;;;;-54
2020/07/10 13:29:28;;;;;;;2.46;1.58;;;;;;;21.79;61.80;100179.55;;;;-53
2020/07/10 13:32:28;;;;;;;1.57;1.40;;;;;;;21.80;61.78;100181.16;;;;-54
2020/07/10 13:35:28;;;;;;;2.09;1.56;;;;;;;21.79;61.83;100180.11;;;;-53
2020/07/10 13:38:28;;;;;;;2.46;1.62;;;;;;;21.79;61.92;100182.89;;;;-54
2020/07/10 13:41:28;;;;;;;1.90;1.55;;;;;;;21.79;61.80;100183.37;;;;-54
2020/07/10 13:44:28;;;;;;;1.65;1.51;;;;;;;21.79;61.92;100188.67;;;;-55
2020/07/10 13:47:28;;;;;;;2.41;1.60;;;;;;;21.78;61.87;100196.25;;;;-53
2020/07/10 13:50:30;;;;;;;3.58;1.59;;;;;;;21.78;61.82;100201.88;;;;-54
2020/07/10 13:53:28;;;;;;;1.79;1.63;;;;;;;21.79;61.78;100207.84;;;;-54
2020/07/10 13:56:28;;;;;;;2.28;1.54;;;;;;;21.79;61.80;100207.36;;;;-53
2020/07/10 13:59:28;;;;;;;1.44;1.31;;;;;;;21.78;61.83;100209.55;;;;-54
2020/07/10 14:02:28;;;;;;;1.49;1.39;;;;;;;21.78;61.81;100208.81;;;;-53
2020/07/10 14:05:28;;;;;;;2.05;1.49;;;;;;;21.78;61.87;100211.27;;;;-54
2020/07/10 14:08:28;;;;;;;1.61;1.43;;;;;;;21.78;61.89;100208.33;;;;-54
2020/07/10 14:11:28;;;;;;;1.64;1.46;;;;;;;21.78;61.81;100208.90;;;;-54
2020/07/10 14:14:28;;;;;;;2.25;1.50;;;;;;;21.78;61.72;100212.25;;;;-53
2020/07/10 14:17:28;;;;;;;1.71;1.57;;;;;;;21.77;61.91;100214.55;;;;-54
2020/07/10 14:20:28;;;;;;;2.57;1.49;;;;;;;21.77;61.83;100215.86;;;;-53
2020/07/10 14:23:28;;;;;;;1.49;1.39;;;;;;;21.78;61.84;100212.01;;;;-53
2020/07/10 14:26:28;;;;;;;2.55;1.50;;;;;;;21.77;61.83;100209.82;;;;-55
2020/07/10 14:29:27;;;;;;;6.87;1.71;;;;;;;21.78;61.84;100210.69;;;;-53
2020/07/10 14:32:28;;;;;;;4.38;1.81;;;;;;;21.78;61.66;100213.87;;;;-52
2020/07/10 14:35:28;;;;;;;6.77;1.93;;;;;;;21.77;61.50;100215.36;;;;-52
2020/07/10 14:38:28;;;;;;;2.65;1.67;;;;;;;21.78;61.47;100218.52;;;;-50
2020/07/10 14:41:28;;;;;;;2.79;1.72;;;;;;;21.78;61.68;100213.30;;;;-49
2020/07/10 14:44:27;;;;;;;3.21;1.70;;;;;;;21.78;61.66;100211.92;;;;-50
2020/07/10 14:47:28;;;;;;;3.59;1.79;;;;;;;21.78;61.75;100212.16;;;;-50
2020/07/10 14:50:28;;;;;;;2.08;1.65;;;;;;;21.78;61.76;100219.27;;;;-50
2020/07/10 14:53:28;;;;;;;2.02;1.61;;;;;;;21.77;61.78;100213.14;;;;-50
2020/07/10 14:56:28;;;;;;;3.49;1.63;;;;;;;21.78;61.81;100212.58;;;;-50
2020/07/10 14:59:28;;;;;;;3.49;1.59;;;;;;;21.78;61.73;100206.78;;;;-49
2020/07/10 15:02:28;;;;;;;2.40;1.69;;;;;;;21.77;61.76;100207.13;;;;-49
2020/07/10 15:05:28;;;;;;;2.31;1.68;;;;;;;21.77;61.79;100212.67;;;;-50
2020/07/10 15:08:28;;;;;;;2.16;1.71;;;;;;;21.76;61.74;100203.44;;;;-49
2020/07/10 15:11:28;;;;;;;1.85;1.68;;;;;;;21.77;61.81;100207.54;;;;-49
2020/07/10 15:14:28;;;;;;;4.05;1.59;;;;;;;21.77;61.76;100204.17;;;;-49
2020/07/10 15:17:28;;;;;;;3.15;1.70;;;;;;;21.76;61.69;100202.30;;;;-51
2020/07/10 15:20:28;;;;;;;3.29;1.55;;;;;;;21.76;61.79;100202.95;;;;-49
2020/07/10 15:23:27;;;;;;;2.88;1.59;;;;;;;21.76;61.82;100205.08;;;;-49
2020/07/10 15:26:28;;;;;;;2.26;1.48;;;;;;;21.77;61.75;100204.50;;;;-49
2020/07/10 15:29:28;;;;;;;2.79;1.69;;;;;;;21.76;61.74;100206.06;;;;-49
2020/07/10 15:32:28;;;;;;;2.26;1.55;;;;;;;21.77;61.76;100203.68;;;;-49
2020/07/10 15:35:28;;;;;;;2.31;1.55;;;;;;;21.76;61.82;100206.22;;;;-51
2020/07/10 15:38:28;;;;;;;1.68;1.58;;;;;;;21.76;61.75;100209.81;;;;-49
2020/07/10 15:41:27;;;;;;;2.82;1.65;;;;;;;21.76;61.70;100208.66;;;;-50
2020/07/10 15:44:28;;;;;;;2.36;1.50;;;;;;;21.76;61.78;100212.34;;;;-49
2020/07/10 15:47:36;;;;;;;1.96;1.54;;;;;;;21.76;61.70;100210.22;;;;-49
2020/07/10 15:50:46;;;;;;;1.79;1.51;;;;;;;21.76;61.78;100212.02;;;;-50
2020/07/10 15:56:29;;;;;;;2.26;1.51;;;;;;;21.76;61.69;100208.11;;;;-51
2020/07/10 15:59:28;;;;;;;2.37;1.66;;;;;;;21.75;61.76;100208.03;;;;-51
2020/07/10 16:02:27;;;;;;;1.65;1.50;;;;;;;21.75;61.77;100209.02;;;;-50
2020/07/10 16:05:28;;;;;;;3.25;1.65;;;;;;;21.76;61.66;100213.41;;;;-49
2020/07/10 16:08:28;;;;;;;3.39;1.67;;;;;;;21.75;61.68;100216.67;;;;-49
2020/07/10 16:11:28;;;;;;;1.61;1.46;;;;;;;21.77;61.70;100216.50;;;;-55
2020/07/10 16:14:28;;;;;;;2.61;1.59;;;;;;;21.78;61.72;100218.44;;;;-50
2020/07/10 16:18:17;;;;;;;2.08;1.65;;;;;;;21.79;61.75;100225.30;;;;-49
2020/07/10 16:20:28;;;;;;;3.87;1.57;;;;;;;21.80;61.72;100223.80;;;;-52
2020/07/10 16:23:28;;;;;;;2.07;1.66;;;;;;;21.82;61.78;100223.73;;;;-54
2020/07/10 16:26:28;;;;;;;5.18;1.98;;;;;;;21.82;61.88;100231.63;;;;-49
2020/07/10 16:29:28;;;;;;;3.97;1.90;;;;;;;21.84;61.57;100233.91;;;;-56
2020/07/10 16:32:28;;;;;;;6.81;1.82;;;;;;;21.85;61.78;100236.41;;;;-53
2020/07/10 16:35:28;;;;;;;4.75;1.60;;;;;;;21.87;61.84;100239.83;;;;-52
2020/07/10 16:38:28;;;;;;;3.43;1.56;;;;;;;21.87;62.01;100238.55;;;;-61
2020/07/10 16:41:28;;;;;;;5.59;1.65;;;;;;;21.88;62.12;100239.91;;;;-51
2020/07/10 16:44:27;;;;;;;4.89;1.96;;;;;;;21.89;62.00;100242.26;;;;-50
2020/07/10 16:47:28;;;;;;;3.03;1.70;;;;;;;21.91;62.05;100238.74;;;;-51
2020/07/10 16:50:28;;;;;;;4.40;1.70;;;;;;;21.91;62.04;100245.26;;;;-58
2020/07/10 16:53:28;;;;;;;3.18;1.70;;;;;;;21.93;62.15;100242.23;;;;-59
2020/07/10 16:56:28;;;;;;;5.15;1.57;;;;;;;21.95;62.08;100241.98;;;;-55
2020/07/10 16:59:28;;;;;;;3.09;1.67;;;;;;;21.95;62.01;100246.71;;;;-56
2020/07/10 17:02:28;;;;;;;3.61;1.69;;;;;;;21.97;61.95;100251.02;;;;-60
2020/07/10 17:05:28;;;;;;;2.69;1.71;;;;;;;21.98;62.06;100260.83;;;;-54
2020/07/10 17:08:28;;;;;;;4.61;1.63;;;;;;;21.98;62.05;100260.16;;;;-53
2020/07/10 17:11:28;;;;;;;2.00;1.55;;;;;;;21.98;62.08;100261.80;;;;-49
2020/07/10 17:14:28;;;;;;;2.11;1.50;;;;;;;21.98;61.88;100269.31;;;;-48
2020/07/10 17:17:28;;;;;;;1.81;1.65;;;;;;;21.97;61.81;100266.92;;;;-47
2020/07/10 17:20:28;;;;;;;2.31;1.70;;;;;;;21.96;61.81;100272.58;;;;-47
2020/07/10 17:23:28;;;;;;;2.71;1.64;;;;;;;21.95;61.81;100278.37;;;;-48
2020/07/10 17:26:27;;;;;;;3.47;1.60;;;;;;;21.95;61.80;100279.19;;;;-47
2020/07/10 17:29:28;;;;;;;1.85;1.71;;;;;;;21.93;61.66;100278.70;;;;-47
2020/07/10 17:32:28;;;;;;;1.84;1.61;;;;;;;21.93;61.71;100286.70;;;;-47
2020/07/10 17:35:28;;;;;;;4.97;1.75;;;;;;;21.92;61.65;100287.87;;;;-47
2020/07/10 17:38:28;;;;;;;2.06;1.64;;;;;;;21.92;61.55;100293.83;;;;-51
2020/07/10 17:41:28;;;;;;;2.06;1.80;;;;;;;21.91;61.43;100298.80;;;;-50
2020/07/10 17:44:28;;;;;;;3.01;1.50;;;;;;;21.91;61.36;100307.19;;;;-51
2020/07/10 17:47:28;;;;;;;2.23;1.47;;;;;;;21.90;61.37;100314.95;;;;-51
2020/07/10 17:50:28;;;;;;;1.74;1.50;;;;;;;21.90;61.43;100320.67;;;;-50
2020/07/10 17:53:28;;;;;;;2.19;1.60;;;;;;;21.89;61.42;100325.72;;;;-51
2020/07/10 17:56:28;;;;;;;3.09;1.73;;;;;;;21.89;61.36;100319.36;;;;-51
2020/07/10 17:59:28;;;;;;;3.04;1.66;;;;;;;21.89;61.26;100330.95;;;;-51
2020/07/10 18:02:28;;;;;;;2.17;1.63;;;;;;;21.88;61.31;100328.92;;;;-50
2020/07/10 18:05:28;;;;;;;3.14;1.67;;;;;;;21.88;61.31;100332.19;;;;-50
2020/07/10 18:08:28;;;;;;;2.43;1.74;;;;;;;21.88;61.37;100338.23;;;;-50
2020/07/10 18:11:28;;;;;;;1.61;1.51;;;;;;;21.88;61.23;100337.17;;;;-51
2020/07/10 18:14:28;;;;;;;2.03;1.59;;;;;;;21.87;61.25;100343.85;;;;-50
2020/07/10 18:17:28;;;;;;;3.11;1.58;;;;;;;21.87;61.27;100340.26;;;;-50
2020/07/10 18:20:28;;;;;;;2.03;1.46;;;;;;;21.86;61.28;100338.97;;;;-50